sensor_id;sensor_type;location;lat;lon;timestamp;pressure;altitude;pressure_sealevel;temperature;humidity
67109;BME280;54027;50.786;7.058;2023-04-04T00:00:09;102444.38;;;1.26;69.92
67109;BME280;54027;50.786;7.058;2023-04-04T00:02:36;102447.00;;;1.27;70.01
67109;BME280;54027;50.786;7.058;2023-04-04T00:05:02;102440.78;;;1.22;69.93
67109;BME280;54027;50.786;7.058;2023-04-04T00:07:28;102438.06;;;1.19;70.43
67109;BME280;54027;50.786;7.058;2023-04-04T00:09:53;102425.06;;;1.15;70.20
67109;BME280;54027;50.786;7.058;2023-04-04T00:12:18;102427.44;;;1.12;70.35
67109;BME280;54027;50.786;7.058;2023-04-04T00:14:44;102438.06;;;1.05;70.76
67109;BME280;54027;50.786;7.058;2023-04-04T00:17:09;102437.00;;;1.01;71.24
67109;BME280;54027;50.786;7.058;2023-04-04T00:19:35;102432.63;;;0.99;71.13
67109;BME280;54027;50.786;7.058;2023-04-04T00:22:00;102427.47;;;0.97;71.21
67109;BME280;54027;50.786;7.058;2023-04-04T00:24:26;102427.19;;;0.93;71.67
67109;BME280;54027;50.786;7.058;2023-04-04T00:26:51;102421.03;;;0.89;71.11
67109;BME280;54027;50.786;7.058;2023-04-04T00:29:16;102427.56;;;0.84;71.62
67109;BME280;54027;50.786;7.058;2023-04-04T00:31:42;102419.81;;;0.83;71.98
67109;BME280;54027;50.786;7.058;2023-04-04T00:34:08;102427.19;;;0.78;72.34
67109;BME280;54027;50.786;7.058;2023-04-04T00:36:33;102429.69;;;0.77;72.52
67109;BME280;54027;50.786;7.058;2023-04-04T00:38:58;102427.72;;;0.72;72.73
67109;BME280;54027;50.786;7.058;2023-04-04T00:41:24;102417.09;;;0.65;73.07
67109;BME280;54027;50.786;7.058;2023-04-04T00:43:49;102422.88;;;0.62;73.05
67109;BME280;54027;50.786;7.058;2023-04-04T00:46:15;102425.97;;;0.57;73.55
67109;BME280;54027;50.786;7.058;2023-04-04T00:48:43;102424.81;;;0.52;73.99
67109;BME280;54027;50.786;7.058;2023-04-04T00:51:08;102432.28;;;0.49;74.40
67109;BME280;54027;50.786;7.058;2023-04-04T00:53:33;102421.75;;;0.43;74.96
67109;BME280;54027;50.786;7.058;2023-04-04T00:55:59;102421.63;;;0.41;74.82
67109;BME280;54027;50.786;7.058;2023-04-04T00:58:24;102425.69;;;0.38;75.05
67109;BME280;54027;50.786;7.058;2023-04-04T01:00:50;102429.72;;;0.34;75.01
67109;BME280;54027;50.786;7.058;2023-04-04T01:03:16;102430.41;;;0.32;75.41
67109;BME280;54027;50.786;7.058;2023-04-04T01:05:42;102424.25;;;0.28;75.17
67109;BME280;54027;50.786;7.058;2023-04-04T01:08:08;102419.06;;;0.27;75.47
67109;BME280;54027;50.786;7.058;2023-04-04T01:10:33;102420.59;;;0.23;76.17
67109;BME280;54027;50.786;7.058;2023-04-04T01:13:00;102413.22;;;0.28;75.68
67109;BME280;54027;50.786;7.058;2023-04-04T01:15:25;102415.75;;;0.28;75.28
67109;BME280;54027;50.786;7.058;2023-04-04T01:17:59;102391.63;;;0.36;74.36
67109;BME280;54027;50.786;7.058;2023-04-04T01:20:28;102377.78;;;0.45;73.67
67109;BME280;54027;50.786;7.058;2023-04-04T01:22:55;102377.91;;;0.47;73.46
67109;BME280;54027;50.786;7.058;2023-04-04T01:25:29;102374.47;;;0.46;73.53
67109;BME280;54027;50.786;7.058;2023-04-04T01:27:56;102373.78;;;0.49;73.11
67109;BME280;54027;50.786;7.058;2023-04-04T01:30:22;102354.56;;;0.54;72.41
67109;BME280;54027;50.786;7.058;2023-04-04T01:32:55;102354.66;;;0.55;72.11
67109;BME280;54027;50.786;7.058;2023-04-04T01:35:52;102341.28;;;0.59;71.59
67109;BME280;54027;50.786;7.058;2023-04-04T01:41:01;102327.19;;;0.64;70.98
67109;BME280;54027;50.786;7.058;2023-04-04T01:43:31;102336.47;;;0.64;71.04
67109;BME280;54027;50.786;7.058;2023-04-04T01:45:58;102342.47;;;0.64;71.41
67109;BME280;54027;50.786;7.058;2023-04-04T01:48:23;102347.25;;;0.60;71.79
67109;BME280;54027;50.786;7.058;2023-04-04T01:50:48;102355.69;;;0.59;71.97
67109;BME280;54027;50.786;7.058;2023-04-04T01:53:14;102362.09;;;0.52;72.53
67109;BME280;54027;50.786;7.058;2023-04-04T01:55:40;102377.19;;;0.49;73.03
67109;BME280;54027;50.786;7.058;2023-04-04T01:58:05;102381.75;;;0.40;73.03
67109;BME280;54027;50.786;7.058;2023-04-04T02:00:30;102383.75;;;0.31;73.88
67109;BME280;54027;50.786;7.058;2023-04-04T02:02:56;102391.72;;;0.23;74.14
67109;BME280;54027;50.786;7.058;2023-04-04T02:05:21;102388.13;;;0.19;74.80
67109;BME280;54027;50.786;7.058;2023-04-04T02:07:48;102401.41;;;0.15;75.55
67109;BME280;54027;50.786;7.058;2023-04-04T02:10:16;102398.44;;;0.07;75.40
67109;BME280;54027;50.786;7.058;2023-04-04T02:12:41;102399.81;;;0.02;75.67
67109;BME280;54027;50.786;7.058;2023-04-04T02:15:07;102399.72;;;0.01;76.23
67109;BME280;54027;50.786;7.058;2023-04-04T02:17:32;102396.81;;;-0.05;76.05
67109;BME280;54027;50.786;7.058;2023-04-04T02:19:59;102405.91;;;-0.09;76.45
67109;BME280;54027;50.786;7.058;2023-04-04T02:22:25;102406.63;;;-0.11;76.64
67109;BME280;54027;50.786;7.058;2023-04-04T02:24:51;102405.53;;;-0.15;77.20
67109;BME280;54027;50.786;7.058;2023-04-04T02:27:18;102412.09;;;-0.18;77.65
67109;BME280;54027;50.786;7.058;2023-04-04T02:29:44;102402.44;;;-0.24;77.52
67109;BME280;54027;50.786;7.058;2023-04-04T02:32:09;102408.16;;;-0.28;77.88
67109;BME280;54027;50.786;7.058;2023-04-04T02:34:34;102403.66;;;-0.32;78.61
67109;BME280;54027;50.786;7.058;2023-04-04T02:37:00;102400.91;;;-0.35;79.13
67109;BME280;54027;50.786;7.058;2023-04-04T02:39:26;102393.03;;;-0.40;78.78
67109;BME280;54027;50.786;7.058;2023-04-04T02:41:51;102401.25;;;-0.44;79.75
67109;BME280;54027;50.786;7.058;2023-04-04T02:44:17;102394.50;;;-0.43;79.92
67109;BME280;54027;50.786;7.058;2023-04-04T02:46:42;102389.13;;;-0.48;80.32
67109;BME280;54027;50.786;7.058;2023-04-04T02:49:08;102397.34;;;-0.52;80.33
67109;BME280;54027;50.786;7.058;2023-04-04T02:51:33;102386.13;;;-0.55;80.57
67109;BME280;54027;50.786;7.058;2023-04-04T02:53:59;102383.47;;;-0.57;81.10
67109;BME280;54027;50.786;7.058;2023-04-04T02:56:25;102379.00;;;-0.61;81.17
67109;BME280;54027;50.786;7.058;2023-04-04T02:58:50;102374.50;;;-0.65;81.56
67109;BME280;54027;50.786;7.058;2023-04-04T03:01:16;102371.00;;;-0.67;81.17
67109;BME280;54027;50.786;7.058;2023-04-04T03:03:41;102369.16;;;-0.69;81.11
67109;BME280;54027;50.786;7.058;2023-04-04T03:06:07;102361.44;;;-0.71;81.34
67109;BME280;54027;50.786;7.058;2023-04-04T03:08:32;102358.81;;;-0.72;81.49
67109;BME280;54027;50.786;7.058;2023-04-04T03:10:59;102353.63;;;-0.74;81.84
67109;BME280;54027;50.786;7.058;2023-04-04T03:13:25;102362.13;;;-0.73;81.81
67109;BME280;54027;50.786;7.058;2023-04-04T03:15:57;102363.09;;;-0.71;81.74
67109;BME280;54027;50.786;7.058;2023-04-04T03:18:24;102358.81;;;-0.72;81.70
67109;BME280;54027;50.786;7.058;2023-04-04T03:20:49;102365.94;;;-0.67;81.59
67109;BME280;54027;50.786;7.058;2023-04-04T03:23:14;102366.13;;;-0.64;82.09
67109;BME280;54027;50.786;7.058;2023-04-04T03:25:40;102366.41;;;-0.59;81.60
67109;BME280;54027;50.786;7.058;2023-04-04T03:28:09;102374.81;;;-0.60;81.88
67109;BME280;54027;50.786;7.058;2023-04-04T03:30:34;102367.28;;;-0.59;82.33
67109;BME280;54027;50.786;7.058;2023-04-04T03:33:05;102365.94;;;-0.67;82.38
67109;BME280;54027;50.786;7.058;2023-04-04T03:35:40;102369.16;;;-0.69;81.92
67109;BME280;54027;50.786;7.058;2023-04-04T03:38:06;102363.22;;;-0.70;82.16
67109;BME280;54027;50.786;7.058;2023-04-04T03:40:32;102365.63;;;-0.71;81.90
67109;BME280;54027;50.786;7.058;2023-04-04T03:42:57;102365.94;;;-0.67;81.89
67109;BME280;54027;50.786;7.058;2023-04-04T03:45:23;102365.63;;;-0.71;81.74
67109;BME280;54027;50.786;7.058;2023-04-04T03:47:48;102366.81;;;-0.66;81.67
67109;BME280;54027;50.786;7.058;2023-04-04T03:50:14;102367.47;;;-0.69;81.55
67109;BME280;54027;50.786;7.058;2023-04-04T03:52:39;102372.47;;;-0.70;81.30
67109;BME280;54027;50.786;7.058;2023-04-04T03:55:05;102369.75;;;-0.73;81.97
67109;BME280;54027;50.786;7.058;2023-04-04T03:57:34;102363.78;;;-0.74;81.69
67109;BME280;54027;50.786;7.058;2023-04-04T04:00:00;102366.06;;;-0.78;82.20
67109;BME280;54027;50.786;7.058;2023-04-04T04:02:25;102368.41;;;-0.81;82.38
67109;BME280;54027;50.786;7.058;2023-04-04T04:04:51;102364.88;;;-0.83;82.18
67109;BME280;54027;50.786;7.058;2023-04-04T04:07:16;102370.06;;;-0.82;82.26
67109;BME280;54027;50.786;7.058;2023-04-04T04:09:42;102365.88;;;-0.81;82.72
67109;BME280;54027;50.786;7.058;2023-04-04T04:12:07;102365.66;;;-0.84;82.21
67109;BME280;54027;50.786;7.058;2023-04-04T04:14:33;102364.00;;;-0.84;82.48
67109;BME280;54027;50.786;7.058;2023-04-04T04:16:58;102363.91;;;-0.85;82.05
67109;BME280;54027;50.786;7.058;2023-04-04T04:19:23;102361.75;;;-0.92;82.30
67109;BME280;54027;50.786;7.058;2023-04-04T04:21:49;102364.00;;;-0.97;82.84
67109;BME280;54027;50.786;7.058;2023-04-04T04:24:15;102355.25;;;-1.02;82.75
67109;BME280;54027;50.786;7.058;2023-04-04T04:26:40;102351.69;;;-1.04;82.91
67109;BME280;54027;50.786;7.058;2023-04-04T04:29:06;102343.81;;;-1.09;83.59
67109;BME280;54027;50.786;7.058;2023-04-04T04:31:32;102349.59;;;-1.11;84.08
67109;BME280;54027;50.786;7.058;2023-04-04T04:33:57;102352.00;;;-1.13;84.08
67109;BME280;54027;50.786;7.058;2023-04-04T04:36:23;102344.00;;;-1.19;84.64
67109;BME280;54027;50.786;7.058;2023-04-04T04:38:48;102347.22;;;-1.21;84.95
67109;BME280;54027;50.786;7.058;2023-04-04T04:41:14;102342.06;;;-1.23;84.99
67109;BME280;54027;50.786;7.058;2023-04-04T04:43:39;102345.25;;;-1.25;84.86
67109;BME280;54027;50.786;7.058;2023-04-04T04:46:05;102346.16;;;-1.25;85.11
67109;BME280;54027;50.786;7.058;2023-04-04T04:48:33;102345.25;;;-1.25;85.43
67109;BME280;54027;50.786;7.058;2023-04-04T04:50:58;102344.50;;;-1.24;84.96
67109;BME280;54027;50.786;7.058;2023-04-04T04:53:23;102342.91;;;-1.22;85.12
67109;BME280;54027;50.786;7.058;2023-04-04T04:55:49;102346.25;;;-1.23;85.24
67109;BME280;54027;50.786;7.058;2023-04-04T04:58:16;102347.91;;;-1.24;85.70
67109;BME280;54027;50.786;7.058;2023-04-04T05:00:45;102347.03;;;-1.24;85.39
67109;BME280;54027;50.786;7.058;2023-04-04T05:03:11;102349.56;;;-1.24;85.58
67109;BME280;54027;50.786;7.058;2023-04-04T05:05:36;102356.28;;;-1.25;85.93
67109;BME280;54027;50.786;7.058;2023-04-04T05:08:03;102351.34;;;-1.23;85.44
67109;BME280;54027;50.786;7.058;2023-04-04T05:10:29;102359.72;;;-1.24;85.72
67109;BME280;54027;50.786;7.058;2023-04-04T05:12:55;102361.38;;;-1.25;85.97
67109;BME280;54027;50.786;7.058;2023-04-04T05:15:21;102358.94;;;-1.23;85.94
67109;BME280;54027;50.786;7.058;2023-04-04T05:17:47;102367.44;;;-1.23;85.84
67109;BME280;54027;50.786;7.058;2023-04-04T05:20:12;102359.03;;;-1.22;85.68
67109;BME280;54027;50.786;7.058;2023-04-04T05:22:45;102359.03;;;-1.22;85.84
67109;BME280;54027;50.786;7.058;2023-04-04T05:25:11;102358.34;;;-1.19;85.58
67109;BME280;54027;50.786;7.058;2023-04-04T05:27:40;102354.25;;;-1.17;85.97
67109;BME280;54027;50.786;7.058;2023-04-04T05:30:06;102358.66;;;-1.15;85.44
67109;BME280;54027;50.786;7.058;2023-04-04T05:32:32;102357.19;;;-1.11;84.94
67109;BME280;54027;50.786;7.058;2023-04-04T05:34:58;102355.72;;;-1.08;85.08
67109;BME280;54027;50.786;7.058;2023-04-04T05:37:23;102357.78;;;-1.02;84.74
67109;BME280;54027;50.786;7.058;2023-04-04T05:39:48;102362.44;;;-0.95;84.70
67109;BME280;54027;50.786;7.058;2023-04-04T05:42:14;102368.78;;;-0.88;84.78
67109;BME280;54027;50.786;7.058;2023-04-04T05:44:39;102367.59;;;-0.80;84.65
67109;BME280;54027;50.786;7.058;2023-04-04T05:47:05;102371.50;;;-0.72;84.14
67109;BME280;54027;50.786;7.058;2023-04-04T05:49:30;102371.00;;;-0.67;84.09
67109;BME280;54027;50.786;7.058;2023-04-04T05:51:56;102373.81;;;-0.62;84.00
67109;BME280;54027;50.786;7.058;2023-04-04T05:54:22;102375.38;;;-0.51;84.01
67109;BME280;54027;50.786;7.058;2023-04-04T05:56:47;102369.69;;;-0.47;83.56
67109;BME280;54027;50.786;7.058;2023-04-04T05:59:13;102366.56;;;-0.43;82.67
67109;BME280;54027;50.786;7.058;2023-04-04T06:01:38;102358.44;;;-0.38;82.61
67109;BME280;54027;50.786;7.058;2023-04-04T06:04:05;102371.41;;;-0.33;82.08
67109;BME280;54027;50.786;7.058;2023-04-04T06:06:31;102371.69;;;-0.28;81.71
67109;BME280;54027;50.786;7.058;2023-04-04T06:08:56;102379.88;;;-0.19;81.61
67109;BME280;54027;50.786;7.058;2023-04-04T06:11:22;102375.44;;;-0.09;80.75
67109;BME280;54027;50.786;7.058;2023-04-04T06:13:48;102374.91;;;-0.03;80.79
67109;BME280;54027;50.786;7.058;2023-04-04T06:16:13;102377.22;;;0.07;80.43
67109;BME280;54027;50.786;7.058;2023-04-04T06:18:38;102377.00;;;0.17;80.73
67109;BME280;54027;50.786;7.058;2023-04-04T06:21:04;102378.38;;;0.27;80.69
67109;BME280;54027;50.786;7.058;2023-04-04T06:23:29;102365.84;;;0.30;78.71
67109;BME280;54027;50.786;7.058;2023-04-04T06:25:55;102370.50;;;0.37;77.99
67109;BME280;54027;50.786;7.058;2023-04-04T06:28:21;102372.47;;;0.41;78.32
67109;BME280;54027;50.786;7.058;2023-04-04T06:30:46;102379.63;;;0.48;78.39
67109;BME280;54027;50.786;7.058;2023-04-04T06:33:12;102377.44;;;0.54;78.71
67109;BME280;54027;50.786;7.058;2023-04-04T06:35:37;102373.47;;;0.59;77.56
67109;BME280;54027;50.786;7.058;2023-04-04T06:38:02;102372.19;;;0.65;77.83
67109;BME280;54027;50.786;7.058;2023-04-04T06:40:29;102348.66;;;0.69;76.82
67109;BME280;54027;50.786;7.058;2023-04-04T06:42:55;102355.88;;;0.77;76.93
67109;BME280;54027;50.786;7.058;2023-04-04T06:45:23;102361.44;;;0.86;76.49
67109;BME280;54027;50.786;7.058;2023-04-04T06:47:49;102362.50;;;0.89;76.32
67109;BME280;54027;50.786;7.058;2023-04-04T06:50:16;102354.44;;;0.96;75.90
67109;BME280;54027;50.786;7.058;2023-04-04T06:52:41;102357.56;;;1.07;75.39
67109;BME280;54027;50.786;7.058;2023-04-04T06:55:08;102342.78;;;1.16;74.40
67109;BME280;54027;50.786;7.058;2023-04-04T06:57:33;102323.72;;;1.24;73.50
67109;BME280;54027;50.786;7.058;2023-04-04T06:59:59;102306.34;;;1.33;72.73
67109;BME280;54027;50.786;7.058;2023-04-04T07:02:25;102296.59;;;1.41;72.19
67109;BME280;54027;50.786;7.058;2023-04-04T07:04:50;102308.31;;;1.53;72.40
67109;BME280;54027;50.786;7.058;2023-04-04T07:07:16;102305.56;;;1.66;72.32
67109;BME280;54027;50.786;7.058;2023-04-04T07:09:41;102318.72;;;1.74;72.04
67109;BME280;54027;50.786;7.058;2023-04-04T07:12:06;102290.19;;;1.81;70.95
67109;BME280;54027;50.786;7.058;2023-04-04T07:14:32;102274.47;;;1.90;69.76
67109;BME280;54027;50.786;7.058;2023-04-04T07:16:57;102288.56;;;1.99;70.06
67109;BME280;54027;50.786;7.058;2023-04-04T07:19:23;102266.81;;;2.06;69.45
67109;BME280;54027;50.786;7.058;2023-04-04T07:21:52;102256.63;;;2.06;68.42
67109;BME280;54027;50.786;7.058;2023-04-04T07:24:18;102247.44;;;2.09;67.56
67109;BME280;54027;50.786;7.058;2023-04-04T07:26:43;102259.47;;;2.12;67.79
67109;BME280;54027;50.786;7.058;2023-04-04T07:29:09;102249.28;;;2.12;66.97
67109;BME280;54027;50.786;7.058;2023-04-04T07:31:35;102272.44;;;2.16;67.51
67109;BME280;54027;50.786;7.058;2023-04-04T07:34:01;102267.19;;;2.13;67.83
67109;BME280;54027;50.786;7.058;2023-04-04T07:36:27;102285.19;;;2.16;68.49
67109;BME280;54027;50.786;7.058;2023-04-04T07:38:53;102268.66;;;2.26;67.65
67109;BME280;54027;50.786;7.058;2023-04-04T07:41:18;102264.94;;;2.37;67.15
67109;BME280;54027;50.786;7.058;2023-04-04T07:43:45;102266.38;;;2.48;67.64
67109;BME280;54027;50.786;7.058;2023-04-04T07:46:11;102259.00;;;2.54;66.55
67109;BME280;54027;50.786;7.058;2023-04-04T07:48:36;102249.81;;;2.58;65.66
67109;BME280;54027;50.786;7.058;2023-04-04T07:51:02;102245.81;;;2.63;66.12
67109;BME280;54027;50.786;7.058;2023-04-04T07:53:29;102232.66;;;2.73;65.02
67109;BME280;54027;50.786;7.058;2023-04-04T07:55:54;102252.78;;;2.84;66.19
67109;BME280;54027;50.786;7.058;2023-04-04T07:58:19;102247.66;;;3.02;65.74
67109;BME280;54027;50.786;7.058;2023-04-04T08:00:46;102191.78;;;3.10;62.97
67109;BME280;54027;50.786;7.058;2023-04-04T08:03:11;102219.56;;;3.21;63.76
67109;BME280;54027;50.786;7.058;2023-04-04T08:05:37;102209.69;;;3.29;63.11
67109;BME280;54027;50.786;7.058;2023-04-04T08:08:02;102209.34;;;3.40;63.60
67109;BME280;54027;50.786;7.058;2023-04-04T08:10:28;102220.03;;;3.51;63.48
67109;BME280;54027;50.786;7.058;2023-04-04T08:12:53;102170.09;;;3.59;61.28
67109;BME280;54027;50.786;7.058;2023-04-04T08:15:19;102155.22;;;3.70;60.42
67109;BME280;54027;50.786;7.058;2023-04-04T08:17:44;102182.22;;;3.84;61.66
67109;BME280;54027;50.786;7.058;2023-04-04T08:20:10;102160.47;;;3.93;59.73
67109;BME280;54027;50.786;7.058;2023-04-04T08:22:36;102133.50;;;4.01;58.22
67109;BME280;54027;50.786;7.058;2023-04-04T08:25:01;102127.19;;;4.14;57.74
67109;BME280;54027;50.786;7.058;2023-04-04T08:27:27;102073.56;;;4.17;53.73
67109;BME280;54027;50.786;7.058;2023-04-04T08:29:52;102109.75;;;4.26;55.21
67109;BME280;54027;50.786;7.058;2023-04-04T08:32:18;102120.22;;;4.32;55.38
67109;BME280;54027;50.786;7.058;2023-04-04T08:34:43;102122.38;;;4.44;55.04
67109;BME280;54027;50.786;7.058;2023-04-04T08:37:09;102097.34;;;4.37;53.23
67109;BME280;54027;50.786;7.058;2023-04-04T08:39:35;102088.97;;;4.41;52.45
67109;BME280;54027;50.786;7.058;2023-04-04T08:42:03;102103.81;;;4.49;52.79
67109;BME280;54027;50.786;7.058;2023-04-04T08:44:31;102114.31;;;4.57;53.31
67109;BME280;54027;50.786;7.058;2023-04-04T08:47:02;102097.69;;;4.68;52.30
67109;BME280;54027;50.786;7.058;2023-04-04T08:49:33;102085.47;;;4.85;51.48
67109;BME280;54027;50.786;7.058;2023-04-04T08:52:01;102090.22;;;4.98;52.27
67109;BME280;54027;50.786;7.058;2023-04-04T08:54:27;102061.53;;;5.08;50.95
67109;BME280;54027;50.786;7.058;2023-04-04T08:56:55;102077.06;;;5.12;51.19
67109;BME280;54027;50.786;7.058;2023-04-04T08:59:20;102093.50;;;5.19;51.38
67109;BME280;54027;50.786;7.058;2023-04-04T09:01:46;102087.00;;;5.29;50.91
67109;BME280;54027;50.786;7.058;2023-04-04T09:04:12;102079.38;;;5.30;50.77
67109;BME280;54027;50.786;7.058;2023-04-04T09:06:37;102077.44;;;5.23;50.12
67109;BME280;54027;50.786;7.058;2023-04-04T09:09:03;102129.31;;;5.41;52.35
67109;BME280;54027;50.786;7.058;2023-04-04T09:11:32;102064.53;;;5.45;49.90
67109;BME280;54027;50.786;7.058;2023-04-04T09:13:59;102075.50;;;5.68;49.41
67109;BME280;54027;50.786;7.058;2023-04-04T09:16:26;102076.81;;;5.82;49.47
67109;BME280;54027;50.786;7.058;2023-04-04T09:18:52;102086.97;;;5.79;50.14
67109;BME280;54027;50.786;7.058;2023-04-04T09:21:18;102102.16;;;5.71;50.33
67109;BME280;54027;50.786;7.058;2023-04-04T09:23:43;102094.78;;;5.82;50.33
67109;BME280;54027;50.786;7.058;2023-04-04T09:26:08;102097.50;;;5.87;50.55
67109;BME280;54027;50.786;7.058;2023-04-04T09:28:35;102093.56;;;5.98;49.52
67109;BME280;54027;50.786;7.058;2023-04-04T09:31:02;102111.53;;;5.98;50.67
67109;BME280;54027;50.786;7.058;2023-04-04T09:33:30;102082.00;;;5.84;48.34
67109;BME280;54027;50.786;7.058;2023-04-04T09:36:06;102093.25;;;5.87;49.02
67109;BME280;54027;50.786;7.058;2023-04-04T09:38:37;102079.56;;;5.88;48.65
67109;BME280;54027;50.786;7.058;2023-04-04T09:41:06;102111.63;;;6.01;50.30
67109;BME280;54027;50.786;7.058;2023-04-04T09:43:33;102094.97;;;6.15;48.67
67109;BME280;54027;50.786;7.058;2023-04-04T09:45:59;102081.25;;;6.14;48.52
67109;BME280;54027;50.786;7.058;2023-04-04T09:48:27;102089.91;;;6.18;48.75
67109;BME280;54027;50.786;7.058;2023-04-04T09:50:56;102081.59;;;6.25;48.03
67109;BME280;54027;50.786;7.058;2023-04-04T09:53:22;102079.13;;;6.28;47.57
67109;BME280;54027;50.786;7.058;2023-04-04T09:55:52;102084.38;;;6.32;47.84
67109;BME280;54027;50.786;7.058;2023-04-04T09:58:23;102101.16;;;6.50;49.43
67109;BME280;54027;50.786;7.058;2023-04-04T10:00:51;102077.47;;;6.60;48.02
67109;BME280;54027;50.786;7.058;2023-04-04T10:03:21;102054.78;;;6.44;46.58
67109;BME280;54027;50.786;7.058;2023-04-04T10:05:47;102087.53;;;6.52;48.09
67109;BME280;54027;50.786;7.058;2023-04-04T10:08:22;102072.78;;;6.45;46.77
67109;BME280;54027;50.786;7.058;2023-04-04T10:13:22;102066.41;;;6.62;46.52
67109;BME280;54027;50.786;7.058;2023-04-04T10:15:47;102082.09;;;6.71;47.17
67109;BME280;54027;50.786;7.058;2023-04-04T10:18:14;102069.56;;;6.82;46.88
67109;BME280;54027;50.786;7.058;2023-04-04T10:20:41;102065.66;;;6.96;47.08
67109;BME280;54027;50.786;7.058;2023-04-04T10:23:07;102065.19;;;7.11;47.07
67109;BME280;54027;50.786;7.058;2023-04-04T10:25:33;102063.69;;;7.17;47.24
67109;BME280;54027;50.786;7.058;2023-04-04T10:27:58;102037.41;;;6.98;45.06
67109;BME280;54027;50.786;7.058;2023-04-04T10:30:23;102066.88;;;7.09;46.41
67109;BME280;54027;50.786;7.058;2023-04-04T10:33:00;102058.38;;;7.13;46.36
67109;BME280;54027;50.786;7.058;2023-04-04T10:35:27;102037.34;;;7.27;45.43
67109;BME280;54027;50.786;7.058;2023-04-04T10:37:58;102022.44;;;7.14;43.79
67109;BME280;54027;50.786;7.058;2023-04-04T10:40:30;102055.78;;;7.11;45.25
67109;BME280;54027;50.786;7.058;2023-04-04T10:43:01;102064.25;;;7.40;45.81
67109;BME280;54027;50.786;7.058;2023-04-04T10:45:28;102051.72;;;7.52;45.06
67109;BME280;54027;50.786;7.058;2023-04-04T10:47:55;102030.31;;;7.53;43.58
67109;BME280;54027;50.786;7.058;2023-04-04T10:50:21;102016.38;;;7.45;43.62
67109;BME280;54027;50.786;7.058;2023-04-04T10:52:46;102024.00;;;7.42;43.91
67109;BME280;54027;50.786;7.058;2023-04-04T10:55:14;102029.59;;;7.60;44.79
67109;BME280;54027;50.786;7.058;2023-04-04T10:57:46;102041.94;;;7.73;44.79
67109;BME280;54027;50.786;7.058;2023-04-04T11:00:17;102016.28;;;7.76;42.85
67109;BME280;54027;50.786;7.058;2023-04-04T11:08:01;101992.38;;;7.82;41.61
67109;BME280;54027;50.786;7.058;2023-04-04T11:13:59;101988.31;;;7.93;40.85
67109;BME280;54027;50.786;7.058;2023-04-04T11:16:25;101976.94;;;7.82;40.44
67109;BME280;54027;50.786;7.058;2023-04-04T11:19:08;101988.16;;;7.85;40.96
67109;BME280;54027;50.786;7.058;2023-04-04T11:21:37;102001.88;;;7.84;42.17
67109;BME280;54027;50.786;7.058;2023-04-04T11:28:58;101988.50;;;8.00;41.80
67109;BME280;54027;50.786;7.058;2023-04-04T11:31:26;101999.63;;;7.99;42.51
67109;BME280;54027;50.786;7.058;2023-04-04T11:33:54;101977.41;;;8.05;40.59
67109;BME280;54027;50.786;7.058;2023-04-04T11:39:20;101957.19;;;8.23;40.17
67109;BME280;54027;50.786;7.058;2023-04-04T11:42:11;101965.78;;;8.23;40.22
67109;BME280;54027;50.786;7.058;2023-04-04T11:47:26;101957.44;;;8.35;39.56
67109;BME280;54027;50.786;7.058;2023-04-04T11:49:55;101945.50;;;8.40;40.50
67109;BME280;54027;50.786;7.058;2023-04-04T11:52:21;101938.75;;;8.45;39.13
67109;BME280;54027;50.786;7.058;2023-04-04T11:54:50;101966.66;;;8.67;40.74
67109;BME280;54027;50.786;7.058;2023-04-04T11:57:17;101955.56;;;8.73;39.93
67109;BME280;54027;50.786;7.058;2023-04-04T11:59:48;101935.88;;;8.76;39.57
67109;BME280;54027;50.786;7.058;2023-04-04T12:02:22;101921.19;;;8.71;38.53
67109;BME280;54027;50.786;7.058;2023-04-04T12:04:51;101941.16;;;8.82;39.64
67109;BME280;54027;50.786;7.058;2023-04-04T12:07:17;101963.69;;;8.92;40.07
67109;BME280;54027;50.786;7.058;2023-04-04T12:09:43;101946.72;;;9.05;40.04
67109;BME280;54027;50.786;7.058;2023-04-04T12:12:12;101934.31;;;9.37;39.87
67109;BME280;54027;50.786;7.058;2023-04-04T12:14:41;101918.66;;;9.26;39.23
67109;BME280;54027;50.786;7.058;2023-04-04T12:17:07;101935.88;;;9.27;40.13
67109;BME280;54027;50.786;7.058;2023-04-04T12:19:37;101912.81;;;9.36;37.64
67109;BME280;54027;50.786;7.058;2023-04-04T12:22:03;101910.66;;;9.65;38.70
67109;BME280;54027;50.786;7.058;2023-04-04T12:24:28;101896.00;;;9.61;36.68
67109;BME280;54027;50.786;7.058;2023-04-04T12:26:54;101895.16;;;9.65;37.16
67109;BME280;54027;50.786;7.058;2023-04-04T12:29:21;101885.75;;;9.67;36.67
67109;BME280;54027;50.786;7.058;2023-04-04T12:31:48;101896.13;;;9.70;37.15
67109;BME280;54027;50.786;7.058;2023-04-04T12:36:46;101902.06;;;9.67;37.50
67109;BME280;54027;50.786;7.058;2023-04-04T12:39:14;101878.00;;;9.68;36.11
67109;BME280;54027;50.786;7.058;2023-04-04T12:44:34;101886.06;;;9.94;35.80
67109;BME280;54027;50.786;7.058;2023-04-04T12:47:02;101892.75;;;9.76;36.65
67109;BME280;54027;50.786;7.058;2023-04-04T12:52:02;101893.00;;;9.97;36.08
67109;BME280;54027;50.786;7.058;2023-04-04T12:54:36;101886.25;;;10.09;35.33
67109;BME280;54027;50.786;7.058;2023-04-04T12:57:03;101877.88;;;10.29;35.31
67109;BME280;54027;50.786;7.058;2023-04-04T12:59:36;101858.22;;;10.44;34.91
67109;BME280;54027;50.786;7.058;2023-04-04T13:02:04;101894.84;;;10.93;36.52
67109;BME280;54027;50.786;7.058;2023-04-04T13:04:32;101882.13;;;11.21;36.22
67109;BME280;54027;50.786;7.058;2023-04-04T13:06:58;101842.66;;;11.56;34.42
67109;BME280;54027;50.786;7.058;2023-04-04T13:09:25;101827.09;;;11.48;33.40
67109;BME280;54027;50.786;7.058;2023-04-04T13:12:02;101822.94;;;11.86;32.59
67109;BME280;54027;50.786;7.058;2023-04-04T13:14:58;101797.09;;;12.05;31.70
67109;BME280;54027;50.786;7.058;2023-04-04T13:17:24;101804.72;;;11.64;32.07
67109;BME280;54027;50.786;7.058;2023-04-04T13:19:50;101814.03;;;11.31;32.23
67109;BME280;54027;50.786;7.058;2023-04-04T13:22:16;101824.28;;;11.16;32.55
67109;BME280;54027;50.786;7.058;2023-04-04T13:24:42;101827.56;;;10.93;33.51
67109;BME280;54027;50.786;7.058;2023-04-04T13:27:07;101818.78;;;10.68;32.39